Time;durP1;ratioP1;P1;durP2;ratioP2;P2;SDS_P1;SDS_P2;PMS_P1;PMS_P2;Temp;Humidity;BMP_temperature;BMP_pressure;BME280_temperature;BME280_humidity;BME280_pressure;Samples;Min_cycle;Max_cycle;Signal;HPM_P1;HPM_P2
2023/03/29 00:00:20;;;;;;;3.65;1.00;;;;;;;8.98;53.32;100546.53;10381513;28;20057;-61
2023/03/29 00:05:24;;;;;;;1.80;0.90;;;;;;;8.83;53.87;100508.59;10375477;28;20044;-61
2023/03/29 00:10:26;;;;;;;1.40;0.85;;;;;;;8.82;54.26;100485.66;10363016;28;20521;-61
2023/03/29 00:15:27;;;;;;;1.27;0.90;;;;;;;8.87;53.71;100472.91;10381440;28;20097;-60
2023/03/29 00:20:29;;;;;;;1.23;0.90;;;;;;;8.93;54.45;100477.81;10365866;28;20058;-61
2023/03/29 00:25:31;;;;;;;3.13;0.90;;;;;;;8.88;54.63;100479.09;10404815;28;20143;-60
2023/03/29 00:30:33;;;;;;;3.03;1.00;;;;;;;8.86;54.72;100487.16;10392615;28;20488;-60
2023/03/29 00:35:38;;;;;;;0.82;0.70;;;;;;;8.86;55.18;100476.53;10388482;28;20056;-60
2023/03/29 00:40:42;;;;;;;1.58;1.13;;;;;;;8.94;55.13;100473.34;10383818;28;20848;-60
2023/03/29 00:45:44;;;;;;;2.20;0.60;;;;;;;8.80;55.42;100466.34;10383974;28;20052;-60
2023/03/29 00:51:13;;;;;;;3.05;0.77;;;;;;;8.88;55.42;100468.47;10381673;28;20048;-60
2023/03/29 00:56:26;;;;;;;1.30;0.95;;;;;;;8.89;55.12;100464.84;10343655;28;20924;-60
2023/03/29 01:01:53;;;;;;;1.73;1.20;;;;;;;8.88;55.31;100463.16;10362691;28;20048;-59
2023/03/29 01:07:00;;;;;;;1.55;0.80;;;;;;;8.88;55.55;100455.19;10389573;28;20041;-60
2023/03/29 01:12:11;;;;;;;1.38;0.90;;;;;;;8.87;55.91;100440.22;10385341;28;20064;-62
2023/03/29 01:17:13;;;;;;;1.27;0.80;;;;;;;8.83;55.50;100440.44;10389860;28;20068;-59
2023/03/29 01:22:21;;;;;;;3.20;1.33;;;;;;;8.79;56.06;100430.97;10384622;28;20627;-60
2023/03/29 01:27:37;;;;;;;1.52;1.02;;;;;;;8.79;55.94;100425.66;10388784;28;20100;-61
2023/03/29 01:32:51;;;;;;;2.22;1.38;;;;;;;8.76;56.68;100412.63;10384499;28;20036;-60
2023/03/29 01:38:00;;;;;;;4.15;2.15;;;;;;;8.74;56.55;100409.22;10384603;28;21006;-60
2023/03/29 01:43:22;;;;;;;2.05;1.15;;;;;;;8.68;57.06;100401.69;10385599;28;20919;-60
2023/03/29 01:48:39;;;;;;;1.52;1.20;;;;;;;8.60;56.62;100381.00;10361825;28;20053;-59
2023/03/29 01:53:48;;;;;;;3.08;1.27;;;;;;;8.70;56.61;100391.81;10392994;28;20041;-60
2023/03/29 01:58:55;;;;;;;2.80;1.10;;;;;;;8.69;57.10;100387.47;10396247;28;20057;-59
2023/03/29 02:04:02;;;;;;;2.38;1.42;;;;;;;8.64;57.45;100387.78;10393451;28;20977;-59
2023/03/29 02:09:05;;;;;;;1.92;1.00;;;;;;;8.66;57.54;100390.31;10356191;28;20418;-59
2023/03/29 02:14:08;;;;;;;1.60;1.13;;;;;;;8.67;57.77;100386.72;10333828;28;20057;-59
2023/03/29 02:19:12;;;;;;;1.45;1.35;;;;;;;8.62;57.82;100375.59;10345694;28;20045;-60
2023/03/29 02:24:17;;;;;;;2.13;1.63;;;;;;;8.58;58.13;100374.09;10342492;28;20549;-62
2023/03/29 02:29:19;;;;;;;3.10;1.50;;;;;;;8.54;58.18;100376.16;10394845;28;20063;-59
2023/03/29 02:34:27;;;;;;;4.57;1.70;;;;;;;8.50;58.32;100374.66;10388593;28;20057;-59
2023/03/29 02:39:32;;;;;;;2.63;1.27;;;;;;;8.47;58.69;100361.59;10388210;28;20055;-59
2023/03/29 02:44:38;;;;;;;2.47;1.90;;;;;;;8.48;58.63;100358.84;10373221;28;20049;-60
2023/03/29 02:49:40;;;;;;;1.55;1.25;;;;;;;8.47;58.69;100359.78;10365234;28;20053;-60
2023/03/29 02:54:47;;;;;;;2.28;1.50;;;;;;;8.53;58.54;100352.34;10377488;28;20608;-59
2023/03/29 02:59:49;;;;;;;2.58;1.83;;;;;;;8.45;58.88;100348.44;10376083;28;20045;-59
2023/03/29 03:04:51;;;;;;;2.05;1.50;;;;;;;8.46;58.86;100347.47;10372994;28;20048;-59
2023/03/29 03:09:52;;;;;;;1.50;1.33;;;;;;;8.44;59.28;100327.34;10372992;28;20053;-59
2023/03/29 03:14:54;;;;;;;3.10;1.77;;;;;;;8.41;59.55;100323.06;10375167;28;20615;-60
2023/03/29 03:19:56;;;;;;;1.65;1.52;;;;;;;8.45;59.29;100329.88;10375667;28;20048;-61
2023/03/29 03:24:57;;;;;;;1.83;1.30;;;;;;;8.47;59.11;100321.81;10371613;28;20425;-60
2023/03/29 03:30:01;;;;;;;2.92;2.00;;;;;;;8.39;59.58;100318.78;10374547;28;20383;-60
2023/03/29 03:35:04;;;;;;;2.10;1.40;;;;;;;8.42;59.47;100323.88;10377188;28;20305;-61
2023/03/29 03:40:08;;;;;;;1.77;1.27;;;;;;;8.41;59.46;100322.22;10375402;28;20045;-60
2023/03/29 03:45:09;;;;;;;3.95;1.70;;;;;;;8.39;59.69;100311.72;10374176;28;20186;-61
2023/03/29 03:50:12;;;;;;;3.00;1.60;;;;;;;8.41;59.74;100317.75;10373720;28;20183;-60
2023/03/29 03:55:14;;;;;;;6.30;1.90;;;;;;;8.44;59.50;100306.94;10375010;28;20061;-60
2023/03/29 04:00:18;;;;;;;3.20;1.60;;;;;;;8.41;60.00;100312.44;10391434;28;20061;-61
2023/03/29 04:05:20;;;;;;;3.05;1.63;;;;;;;8.41;59.59;100317.75;10384302;28;20576;-60
2023/03/29 04:10:22;;;;;;;2.03;1.27;;;;;;;8.40;59.86;100310.72;10383788;28;20056;-60
2023/03/29 04:15:25;;;;;;;4.47;1.40;;;;;;;8.41;59.28;100301.81;10401493;28;20125;-60
2023/03/29 04:20:27;;;;;;;2.55;1.70;;;;;;;8.39;60.12;100303.75;10348200;28;20049;-61
2023/03/29 04:25:28;;;;;;;3.90;1.40;;;;;;;8.41;60.02;100301.81;10383241;28;20060;-59
2023/03/29 04:30:30;;;;;;;3.10;1.52;;;;;;;8.40;59.81;100293.97;10385142;28;20767;-61
2023/03/29 04:35:32;;;;;;;3.53;1.60;;;;;;;8.41;60.13;100301.81;10375462;28;20048;-59
2023/03/29 04:40:33;;;;;;;3.25;1.38;;;;;;;8.44;60.05;100299.00;10384631;28;20053;-59
2023/03/29 04:45:40;;;;;;;1.98;1.63;;;;;;;8.34;59.88;100281.16;10384607;28;20083;-59
2023/03/29 04:50:45;;;;;;;3.15;1.80;;;;;;;8.46;60.06;100298.88;10385441;28;20177;-59
2023/03/29 04:55:47;;;;;;;3.67;2.15;;;;;;;8.46;60.32;100289.09;10381753;28;21151;-59
2023/03/29 05:00:48;;;;;;;3.35;1.67;;;;;;;8.42;60.20;100295.56;10384329;28;20131;-59
2023/03/29 05:05:50;;;;;;;4.85;1.70;;;;;;;8.44;60.04;100290.19;10383487;28;20062;-59
2023/03/29 05:10:52;;;;;;;3.60;1.80;;;;;;;8.43;60.31;100289.28;10381898;28;20107;-59
2023/03/29 05:15:53;;;;;;;3.60;1.85;;;;;;;8.42;60.63;100290.28;10370045;28;20064;-59
2023/03/29 05:20:55;;;;;;;7.22;1.90;;;;;;;8.43;60.39;100289.28;10376182;28;20052;-59
2023/03/29 05:25:57;;;;;;;5.90;2.17;;;;;;;8.45;60.61;100289.22;10376568;28;20076;-58
2023/03/29 05:31:02;;;;;;;4.47;1.90;;;;;;;8.40;60.67;100284.22;10378662;28;20447;-58
2023/03/29 05:36:12;;;;;;;5.72;2.42;;;;;;;8.43;60.76;100294.59;10379263;28;20057;-64
2023/03/29 05:41:15;;;;;;;8.27;2.33;;;;;;;8.45;60.48;100287.44;10384000;28;20048;-59
2023/03/29 05:46:16;;;;;;;4.07;2.25;;;;;;;8.51;60.44;100299.38;10355568;28;21077;-59
2023/03/29 05:51:22;;;;;;;4.68;2.83;;;;;;;8.53;60.39;100291.31;10370367;28;20079;-59
2023/03/29 05:56:25;;;;;;;2.53;1.90;;;;;;;8.57;60.52;100290.16;10372718;28;20051;-59
2023/03/29 06:01:31;;;;;;;3.58;2.28;;;;;;;8.58;60.29;100276.78;10380317;28;20139;-59
2023/03/29 06:06:34;;;;;;;4.30;2.20;;;;;;;8.60;60.05;100280.19;10375401;28;20056;-59
2023/03/29 06:11:36;;;;;;;4.75;2.63;;;;;;;8.63;60.09;100289.72;10363784;28;20053;-59
2023/03/29 06:16:39;;;;;;;2.25;2.05;;;;;;;8.61;60.14;100273.06;10371868;28;20048;-60
2023/03/29 06:21:43;;;;;;;3.15;2.78;;;;;;;8.70;59.98;100277.69;10372872;28;20497;-60
2023/03/29 06:26:45;;;;;;;3.65;1.70;;;;;;;8.81;59.73;100277.78;10378191;28;20874;-60
2023/03/29 06:31:48;;;;;;;7.00;2.58;;;;;;;8.92;59.23;100292.09;10375883;28;20056;-61
2023/03/29 06:36:49;;;;;;;5.07;3.05;;;;;;;9.00;59.01;100289.69;10369481;28;21525;-60
2023/03/29 06:41:51;;;;;;;4.03;2.58;;;;;;;9.15;59.37;100304.50;10371371;28;20152;-65
2023/03/29 06:46:53;;;;;;;4.50;3.20;;;;;;;9.24;59.07;100304.78;10343104;28;20063;-61
2023/03/29 06:51:55;;;;;;;4.47;3.30;;;;;;;9.28;59.01;100300.97;10340142;28;20068;-60
2023/03/29 06:56:58;;;;;;;4.00;3.20;;;;;;;9.27;58.87;100310.72;10328452;28;20091;-60
2023/03/29 07:02:01;;;;;;;6.78;3.60;;;;;;;9.24;59.27;100308.28;10348963;28;20057;-59
2023/03/29 07:07:04;;;;;;;4.10;2.92;;;;;;;9.20;59.23;100305.03;10372607;28;20057;-59
2023/03/29 07:12:07;;;;;;;5.78;2.88;;;;;;;9.20;58.84;100305.03;10347963;28;21437;-59
2023/03/29 07:17:10;;;;;;;4.72;3.58;;;;;;;9.19;58.85;100302.47;10370477;28;20049;-61
2023/03/29 07:22:12;;;;;;;4.70;3.15;;;;;;;9.28;58.62;100303.63;10375383;28;20729;-60
2023/03/29 07:27:15;;;;;;;3.92;2.88;;;;;;;9.35;58.81;100310.13;10374461;28;20409;-60
2023/03/29 07:32:16;;;;;;;4.82;3.60;;;;;;;9.30;58.77;100312.31;10359137;28;20118;-59
2023/03/29 07:37:18;;;;;;;6.50;3.38;;;;;;;9.40;58.33;100318.63;10359745;28;20136;-59
2023/03/29 07:42:19;;;;;;;5.03;3.70;;;;;;;9.48;57.74;100313.56;10376506;28;20055;-60
2023/03/29 07:47:22;;;;;;;6.47;2.60;;;;;;;9.54;57.51;100313.13;10375233;28;20045;-60
2023/03/29 07:52:23;;;;;;;3.28;2.75;;;;;;;9.64;57.30;100328.41;10369728;28;20057;-62
2023/03/29 07:57:25;;;;;;;4.85;3.10;;;;;;;9.82;57.10;100318.19;10373326;28;20060;-60
2023/03/29 08:02:27;;;;;;;6.13;3.25;;;;;;;9.95;56.31;100326.03;10371064;28;20053;-59
2023/03/29 08:07:29;;;;;;;4.38;2.95;;;;;;;10.10;56.30;100327.50;10372704;28;20664;-60
2023/03/29 08:12:31;;;;;;;4.38;3.20;;;;;;;10.10;56.08;100332.84;10373862;28;20064;-59
2023/03/29 08:17:34;;;;;;;4.88;3.53;;;;;;;10.17;55.76;100320.75;10370195;28;22883;-61
2023/03/29 08:22:37;;;;;;;4.13;3.10;;;;;;;10.21;55.21;100316.91;10372687;28;20056;-60
2023/03/29 08:27:38;;;;;;;6.38;3.40;;;;;;;10.32;55.24;100315.22;10371263;28;20049;-60
2023/03/29 08:32:40;;;;;;;3.90;3.28;;;;;;;10.38;55.25;100304.13;10376225;28;20053;-59
2023/03/29 08:37:42;;;;;;;4.32;3.15;;;;;;;10.48;54.82;100304.22;10369710;28;20521;-60
2023/03/29 08:42:56;;;;;;;5.55;4.00;;;;;;;10.63;54.41;100307.47;10375738;28;20525;-60
2023/03/29 08:48:24;;;;;;;3.22;2.70;;;;;;;10.90;53.29;100313.25;10375796;28;20350;-61
2023/03/29 08:53:44;;;;;;;8.38;3.22;;;;;;;10.99;53.06;100313.47;10374426;28;20083;-60
2023/03/29 08:58:48;;;;;;;4.18;2.90;;;;;;;11.22;52.37;100291.13;10340878;28;20545;-59
2023/03/29 09:04:05;;;;;;;;;;;;;;;11.68;50.89;100297.94;10377391;28;20049;-60
2023/03/29 09:09:16;;;;;;;3.25;2.88;;;;;;;11.79;49.75;100302.38;10363275;28;20035;-59
2023/03/29 09:14:45;;;;;;;6.13;3.25;;;;;;;11.77;49.74;100316.78;10367990;28;20196;-59
2023/03/29 09:19:46;;;;;;;3.15;2.17;;;;;;;11.60;50.05;100316.41;10372243;28;20053;-60
2023/03/29 09:24:57;;;;;;;4.95;3.35;;;;;;;11.68;50.18;100308.63;10371883;28;20052;-60
2023/03/29 09:30:24;;;;;;;4.00;3.05;;;;;;;11.85;50.23;100303.69;10367172;28;20678;-60
2023/03/29 09:35:35;;;;;;;4.65;3.35;;;;;;;12.01;49.77;100312.09;10361442;28;20118;-68
2023/03/29 09:40:46;;;;;;;4.50;2.78;;;;;;;12.02;49.44;100299.59;10373582;28;20064;-62
2023/03/29 09:45:55;;;;;;;4.03;2.80;;;;;;;11.90;49.06;100290.78;10337787;28;20065;-62
2023/03/29 09:50:57;;;;;;;6.20;2.75;;;;;;;12.36;48.39;100289.50;10380585;28;20103;-61
2023/03/29 09:56:00;;;;;;;7.00;3.05;;;;;;;12.92;47.20;100287.28;10367680;28;20069;-60
2023/03/29 10:01:07;;;;;;;4.22;2.40;;;;;;;13.38;46.82;100304.53;10369359;28;20061;-59
2023/03/29 10:06:11;;;;;;;2.95;2.47;;;;;;;13.72;46.09;100306.78;10369066;28;20435;-60
2023/03/29 10:11:22;;;;;;;5.13;2.70;;;;;;;13.67;45.97;100287.59;10368121;28;20148;-59
2023/03/29 10:16:36;;;;;;;3.17;2.38;;;;;;;13.88;46.10;100299.97;10379155;28;20056;-58
2023/03/29 10:21:41;;;;;;;3.53;2.70;;;;;;;14.43;44.50;100284.03;10379085;28;20799;-58
2023/03/29 10:26:42;;;;;;;6.65;3.70;;;;;;;14.82;44.33;100291.88;10379857;28;20501;-60
2023/03/29 10:31:44;;;;;;;5.70;2.72;;;;;;;14.37;45.21;100279.25;10389477;28;20131;-60
2023/03/29 10:37:15;;;;;;;4.57;2.83;;;;;;;13.85;46.30;100260.13;10364457;28;20060;-62
2023/03/29 10:42:22;;;;;;;4.32;2.65;;;;;;;13.71;46.84;100251.56;10377715;28;20064;-60
2023/03/29 10:47:29;;;;;;;5.25;2.90;;;;;;;13.66;47.36;100243.16;10381620;28;20057;-59
2023/03/29 10:52:32;;;;;;;3.83;2.45;;;;;;;13.78;47.35;100246.47;10377673;28;20080;-60
2023/03/29 10:58:02;;;;;;;4.38;2.50;;;;;;;13.59;47.52;100237.50;10387994;28;20132;-60
2023/03/29 11:03:16;;;;;;;3.17;2.20;;;;;;;13.74;47.87;100245.09;10343444;28;20057;-60
2023/03/29 11:08:25;;;;;;;4.32;2.45;;;;;;;13.89;47.69;100253.50;10339341;28;20053;-60
2023/03/29 11:13:42;;;;;;;4.28;2.70;;;;;;;14.01;47.89;100244.31;10370503;28;20041;-57
2023/03/29 11:18:54;;;;;;;4.07;2.20;;;;;;;14.64;45.78;100248.16;10344414;28;20660;-59
2023/03/29 11:24:06;;;;;;;3.42;2.67;;;;;;;15.02;45.48;100247.03;10337990;28;20041;-59
2023/03/29 11:29:15;;;;;;;2.72;2.35;;;;;;;14.99;45.50;100247.34;10374449;28;20897;-59
2023/03/29 11:34:47;;;;;;;4.88;2.47;;;;;;;15.42;44.82;100236.84;10370717;28;20044;-59
2023/03/29 11:39:51;;;;;;;3.63;3.28;;;;;;;15.73;43.56;100233.69;10362922;28;20118;-58
2023/03/29 11:44:57;;;;;;;5.18;2.72;;;;;;;16.74;42.24;100234.88;10371773;28;20052;-60
2023/03/29 11:50:05;;;;;;;5.97;3.10;;;;;;;17.63;41.13;100221.66;10376496;28;20045;-59
2023/03/29 11:55:35;;;;;;;5.28;2.72;;;;;;;18.76;39.06;100209.00;10371323;28;20049;-59
2023/03/29 12:00:42;;;;;;;2.42;2.00;;;;;;;18.17;39.91;100208.44;10367459;28;20052;-60
2023/03/29 12:05:48;;;;;;;5.90;2.78;;;;;;;17.42;41.46;100219.50;10351568;28;20057;-60
2023/03/29 12:11:23;;;;;;;4.95;2.75;;;;;;;19.83;37.47;100213.53;10356444;28;20487;-61
2023/03/29 12:16:36;;;;;;;5.65;3.70;;;;;;;20.07;36.84;100191.69;10329443;28;20779;-61
2023/03/29 12:21:40;;;;;;;;;;;;;;;23.08;32.50;100190.38;10344387;28;20049;-60
2023/03/29 12:27:07;;;;;;;2.88;2.65;;;;;;;25.38;29.05;100181.03;10350760;28;19948;-61
2023/03/29 12:32:30;;;;;;;3.20;2.13;;;;;;;26.58;27.25;100175.31;10378238;28;20059;-60
2023/03/29 12:37:57;;;;;;;3.72;2.25;;;;;;;26.86;26.91;100184.81;10384185;28;20493;-59
2023/03/29 12:43:03;;;;;;;3.78;2.22;;;;;;;27.96;25.43;100158.78;10385826;28;20422;-61
2023/03/29 12:48:06;;;;;;;3.97;2.22;;;;;;;28.73;24.61;100152.13;10386745;28;20048;-62
2023/03/29 12:53:26;;;;;;;2.55;1.95;;;;;;;25.05;29.46;100163.03;10388092;28;20110;-61
2023/03/29 12:58:37;;;;;;;4.55;2.72;;;;;;;25.85;29.02;100144.31;10387709;28;20557;-63
2023/03/29 13:03:47;;;;;;;2.85;1.92;;;;;;;26.73;28.23;100148.47;10383304;28;20732;-63
2023/03/29 13:08:58;;;;;;;3.28;2.35;;;;;;;24.42;30.84;100136.63;10378525;28;20068;-63
2023/03/29 13:14:12;;;;;;;4.68;3.00;;;;;;;23.40;33.07;100120.00;10386482;28;20048;-63
2023/03/29 13:19:42;;;;;;;3.47;2.10;;;;;;;24.67;31.58;100116.84;10387974;28;20186;-63
2023/03/29 13:25:03;;;;;;;2.78;1.83;;;;;;;22.62;34.10;100120.59;10390981;28;20097;-62
2023/03/29 13:30:18;;;;;;;2.80;2.45;;;;;;;20.22;38.54;100112.44;10381463;28;20044;-62
2023/03/29 13:35:49;;;;;;;3.20;2.58;;;;;;;19.60;40.21;100119.94;10365881;28;20060;-63
2023/03/29 13:41:23;;;;;;;4.43;2.53;;;;;;;18.95;41.93;100103.38;10386192;28;20082;-64
2023/03/29 13:46:40;;;;;;;3.33;2.65;;;;;;;18.57;42.88;100111.41;10371014;28;20165;-62
2023/03/29 13:52:14;;;;;;;4.60;2.70;;;;;;;18.30;43.54;100100.09;10390958;28;20060;-61
2023/03/29 13:57:24;;;;;;;3.17;2.33;;;;;;;17.96;44.46;100087.81;10372704;28;20057;-62
2023/03/29 14:02:35;;;;;;;4.38;2.97;;;;;;;18.19;43.83;100087.03;10386477;28;20056;-61
2023/03/29 14:07:42;;;;;;;5.85;2.60;;;;;;;18.49;43.37;100079.09;10381867;28;20076;-59
2023/03/29 14:12:45;;;;;;;3.55;2.60;;;;;;;18.35;43.29;100073.47;10382448;28;20128;-60
2023/03/29 14:17:49;;;;;;;3.55;2.65;;;;;;;17.96;43.92;100082.44;10389895;28;20084;-58
2023/03/29 14:22:51;;;;;;;3.03;2.53;;;;;;;17.65;44.51;100066.22;10392257;28;20052;-59
2023/03/29 14:27:53;;;;;;;4.93;2.55;;;;;;;17.81;44.36;100059.94;10388749;28;20052;-59
2023/03/29 14:32:55;;;;;;;3.00;2.70;;;;;;;18.14;43.63;100062.50;10375681;28;20964;-59
2023/03/29 14:38:00;;;;;;;3.97;3.20;;;;;;;17.92;43.85;100053.34;10379131;28;20061;-60
2023/03/29 14:43:06;;;;;;;4.47;2.83;;;;;;;17.91;43.76;100052.53;10372641;28;20052;-59
2023/03/29 14:48:11;;;;;;;3.55;2.92;;;;;;;17.87;43.86;100051.16;10374047;28;20048;-59
2023/03/29 14:53:19;;;;;;;3.88;2.63;;;;;;;17.79;43.86;100032.34;10381913;28;20877;-61
2023/03/29 14:58:27;;;;;;;4.78;2.78;;;;;;;17.79;43.79;100032.34;10379705;28;20050;-60
2023/03/29 15:03:28;;;;;;;3.70;2.30;;;;;;;17.74;44.08;100018.56;10379874;28;20519;-61
2023/03/29 15:08:36;;;;;;;3.80;2.60;;;;;;;17.52;44.20;100006.72;10377657;28;20049;-60
2023/03/29 15:13:41;;;;;;;3.47;2.70;;;;;;;17.36;44.75;99989.66;10383889;28;20064;-61
2023/03/29 15:18:46;;;;;;;4.32;2.53;;;;;;;17.19;44.89;99983.50;10376765;28;20492;-59
2023/03/29 15:23:57;;;;;;;3.47;2.85;;;;;;;17.08;45.19;99986.53;10386741;28;20520;-59
2023/03/29 15:29:08;;;;;;;4.53;2.22;;;;;;;16.94;45.45;99997.00;10374107;28;20128;-59
2023/03/29 15:34:23;;;;;;;4.38;2.45;;;;;;;16.96;45.69;99992.31;10378252;28;20079;-58
2023/03/29 15:39:27;;;;;;;3.70;2.25;;;;;;;17.17;45.39;99980.13;10382606;28;20045;-59
2023/03/29 15:44:32;;;;;;;4.38;2.78;;;;;;;17.13;45.27;99982.34;10385190;28;20041;-59
2023/03/29 15:49:33;;;;;;;2.63;1.88;;;;;;;17.00;45.54;99973.97;10380719;28;20143;-63
2023/03/29 15:54:36;;;;;;;3.35;2.38;;;;;;;16.91;45.90;99970.44;10374647;28;21306;-59
2023/03/29 15:59:37;;;;;;;4.28;2.10;;;;;;;16.96;46.37;99970.78;10363897;28;20044;-59
2023/03/29 16:04:39;;;;;;;4.35;1.90;;;;;;;16.93;46.49;99963.06;10371580;28;20053;-59
2023/03/29 16:09:42;;;;;;;5.25;2.22;;;;;;;16.89;46.41;99956.34;10365123;28;20105;-58
2023/03/29 16:14:44;;;;;;;2.97;2.35;;;;;;;16.89;46.68;99955.50;10359487;28;20543;-59
2023/03/29 16:19:46;;;;;;;3.13;2.63;;;;;;;16.77;47.12;99945.09;10339819;28;20044;-60
2023/03/29 16:24:48;;;;;;;5.07;2.30;;;;;;;16.77;47.40;99941.56;10369527;28;20102;-59
2023/03/29 16:29:49;;;;;;;2.80;2.33;;;;;;;16.74;47.74;99944.59;10368571;28;20122;-59
2023/03/29 16:34:51;;;;;;;2.47;2.15;;;;;;;16.64;48.07;99936.72;10367582;28;20165;-59
2023/03/29 16:39:54;;;;;;;4.20;2.28;;;;;;;16.58;48.84;99932.84;10369260;28;20064;-58
2023/03/29 16:44:55;;;;;;;4.68;3.00;;;;;;;16.50;49.72;99927.50;10369939;28;20725;-59
2023/03/29 16:49:57;;;;;;;2.63;1.80;;;;;;;16.41;50.37;99931.22;10381518;28;20053;-59
2023/03/29 16:54:58;;;;;;;3.35;1.80;;;;;;;16.35;51.08;99918.44;10379157;28;20059;-59
2023/03/29 17:00:01;;;;;;;3.00;1.80;;;;;;;16.30;51.27;99918.94;10376426;28;20170;-59
2023/03/29 17:05:03;;;;;;;3.30;1.95;;;;;;;16.24;51.53;99920.50;10377900;28;20564;-59
2023/03/29 17:10:09;;;;;;;4.15;1.90;;;;;;;16.18;51.55;99920.31;10381810;28;20057;-58
2023/03/29 17:15:11;;;;;;;3.58;2.55;;;;;;;16.18;52.20;99918.47;10383146;28;20207;-58
2023/03/29 17:20:12;;;;;;;2.45;1.75;;;;;;;16.13;52.32;99912.75;10387261;28;20049;-57
2023/03/29 17:25:14;;;;;;;5.55;2.20;;;;;;;16.09;52.88;99911.41;10381533;28;20155;-58
2023/03/29 17:30:16;;;;;;;3.42;2.10;;;;;;;16.00;53.14;99907.91;10388242;28;20057;-62
2023/03/29 17:35:18;;;;;;;4.10;2.83;;;;;;;16.07;53.54;99906.22;10391211;28;20432;-58
2023/03/29 17:40:21;;;;;;;4.25;2.25;;;;;;;16.01;53.38;99892.63;10390705;28;20053;-58
2023/03/29 17:45:22;;;;;;;3.05;1.92;;;;;;;15.98;53.21;99906.38;10388149;28;20071;-58
2023/03/29 17:50:25;;;;;;;7.53;3.55;;;;;;;15.89;53.49;99895.63;10391163;28;20052;-58
2023/03/29 17:55:26;;;;;;;5.13;3.13;;;;;;;15.87;53.36;99886.91;10389685;28;20053;-63
2023/03/29 18:00:28;;;;;;;10.93;9.02;;;;;;;15.78;54.04;99893.28;10385432;28;20663;-59
2023/03/29 18:05:29;;;;;;;11.40;10.18;;;;;;;15.79;54.25;99886.06;10390000;28;20045;-58
2023/03/29 18:10:31;;;;;;;5.97;5.45;;;;;;;15.86;56.21;99879.03;10387922;28;20045;-55
2023/03/29 18:15:32;;;;;;;33.55;30.70;;;;;;;15.84;55.63;99881.88;10383827;28;20056;-53
2023/03/29 18:20:34;;;;;;;3.58;2.58;;;;;;;15.73;56.23;99871.44;10389410;28;20579;-54
2023/03/29 18:25:36;;;;;;;5.22;2.33;;;;;;;15.69;56.96;99888.91;10383102;28;20510;-53
2023/03/29 18:30:39;;;;;;;3.70;2.08;;;;;;;15.63;57.56;99902.97;10373049;28;20503;-54
2023/03/29 18:35:47;;;;;;;3.85;1.90;;;;;;;15.58;58.06;99908.81;10357996;28;20739;-54
2023/03/29 18:40:49;;;;;;;3.15;2.55;;;;;;;15.56;59.04;99906.28;10377641;28;20159;-54
2023/03/29 18:45:50;;;;;;;2.67;2.00;;;;;;;15.54;58.95;99883.34;10376147;28;20056;-54
2023/03/29 18:50:55;;;;;;;2.38;1.42;;;;;;;15.49;60.03;99891.88;10367126;28;20140;-60
2023/03/29 18:55:57;;;;;;;5.90;2.10;;;;;;;15.47;59.66;99882.31;10360710;28;20053;-61
2023/03/29 19:01:04;;;;;;;3.53;1.70;;;;;;;15.37;60.96;99879.75;10370613;28;20109;-61
2023/03/29 19:06:06;;;;;;;4.80;1.67;;;;;;;15.37;60.62;99874.38;10361940;28;20057;-60
2023/03/29 19:11:12;;;;;;;3.65;2.13;;;;;;;15.36;60.41;99872.72;10376963;28;20060;-60
2023/03/29 19:16:14;;;;;;;3.50;1.92;;;;;;;15.30;61.09;99882.25;10357189;28;20059;-60
2023/03/29 19:21:16;;;;;;;3.92;1.48;;;;;;;15.30;60.97;99894.84;10384634;28;20546;-60
2023/03/29 19:26:17;;;;;;;3.80;1.52;;;;;;;15.25;61.42;99889.94;10375562;28;20843;-59
2023/03/29 19:31:19;;;;;;;2.80;1.90;;;;;;;15.23;61.42;99897.31;10376049;28;20053;-60
2023/03/29 19:36:21;;;;;;;3.50;1.80;;;;;;;15.18;60.96;99889.75;10377683;28;20064;-60
2023/03/29 19:41:23;;;;;;;4.82;2.13;;;;;;;15.11;61.54;99891.41;10377019;28;20049;-61
2023/03/29 19:46:26;;;;;;;2.30;1.67;;;;;;;15.10;60.92;99889.75;10369445;28;20083;-59
2023/03/29 19:51:28;;;;;;;4.30;2.97;;;;;;;15.03;60.90;99884.19;10363073;28;20642;-61
2023/03/29 19:56:31;;;;;;;2.90;1.63;;;;;;;15.05;60.37;99859.91;10373788;28;20306;-61
2023/03/29 20:01:33;;;;;;;4.75;2.53;;;;;;;15.00;60.18;99852.34;10371244;28;20049;-61
2023/03/29 20:06:34;;;;;;;3.45;2.72;;;;;;;14.98;59.56;99840.97;10378967;28;20045;-61
2023/03/29 20:11:39;;;;;;;3.95;1.65;;;;;;;14.96;59.23;99834.91;10375913;28;20110;-60
2023/03/29 20:16:42;;;;;;;4.10;2.00;;;;;;;14.97;59.11;99833.09;10359844;28;20045;-59
2023/03/29 20:21:43;;;;;;;3.72;1.90;;;;;;;14.96;59.16;99818.00;10378009;28;20045;-61
2023/03/29 20:26:45;;;;;;;4.38;3.63;;;;;;;14.93;59.60;99783.47;10370492;28;20057;-60
2023/03/29 20:31:47;;;;;;;5.15;3.10;;;;;;;14.88;59.95;99775.06;10396243;28;20473;-60
2023/03/29 20:36:48;;;;;;;3.90;2.63;;;;;;;14.91;60.04;99785.50;10400579;28;20068;-60
2023/03/29 20:41:50;;;;;;;4.75;2.90;;;;;;;14.87;60.61;99770.75;10375532;28;20045;-60
2023/03/29 20:47:02;;;;;;;3.45;2.80;;;;;;;14.85;60.55;99773.59;10390944;28;20049;-64
2023/03/29 20:52:11;;;;;;;5.00;3.00;;;;;;;14.83;60.66;99760.34;10410724;28;25007;-60
2023/03/29 20:57:15;;;;;;;3.03;2.75;;;;;;;14.79;60.73;99768.88;10405987;28;20133;-60
2023/03/29 21:02:20;;;;;;;5.32;3.50;;;;;;;14.76;60.06;99753.97;10406029;28;20052;-60
2023/03/29 21:07:22;;;;;;;5.25;3.08;;;;;;;14.76;60.20;99761.16;10402286;28;20048;-60
2023/03/29 21:12:24;;;;;;;4.28;3.00;;;;;;;14.73;60.68;99743.56;10406583;28;20342;-60
2023/03/29 21:17:27;;;;;;;3.90;2.83;;;;;;;14.71;60.38;99753.59;10406205;28;20053;-60
2023/03/29 21:22:28;;;;;;;6.65;3.22;;;;;;;14.71;60.41;99732.16;10407671;28;20049;-60
2023/03/29 21:27:30;;;;;;;5.28;3.58;;;;;;;14.69;60.23;99723.47;10411360;28;20226;-59
2023/03/29 21:32:31;;;;;;;5.32;3.15;;;;;;;14.66;59.99;99713.91;10394692;28;20950;-60
2023/03/29 21:37:33;;;;;;;6.13;3.92;;;;;;;14.65;59.88;99716.75;10404793;28;20100;-60
2023/03/29 21:42:35;;;;;;;6.47;3.58;;;;;;;14.65;59.58;99714.06;10404386;28;20053;-61
2023/03/29 21:47:37;;;;;;;5.72;3.42;;;;;;;14.63;59.19;99706.19;10407007;28;20054;-61
2023/03/29 21:52:39;;;;;;;4.40;3.03;;;;;;;14.63;58.63;99706.19;10403979;28;20052;-66
2023/03/29 21:57:41;;;;;;;5.18;2.38;;;;;;;14.59;57.00;99699.47;10404884;28;20650;-61
2023/03/29 22:02:44;;;;;;;3.70;2.58;;;;;;;14.58;56.06;99696.97;10400189;28;20055;-61
2023/03/29 22:07:49;;;;;;;3.97;2.30;;;;;;;14.54;55.77;99690.25;10405364;28;20049;-61
2023/03/29 22:12:50;;;;;;;3.67;2.45;;;;;;;14.53;54.99;99688.56;10399478;28;21163;-61
2023/03/29 22:17:52;;;;;;;4.28;2.92;;;;;;;14.48;54.84;99676.50;10406286;28;20052;-61
2023/03/29 22:22:54;;;;;;;4.90;2.60;;;;;;;14.45;54.92;99666.09;10402914;28;20759;-60
2023/03/29 22:27:56;;;;;;;4.13;1.90;;;;;;;14.43;55.24;99669.97;10404870;28;20052;-60
2023/03/29 22:32:58;;;;;;;5.07;2.20;;;;;;;14.40;55.04;99664.94;10400718;28;20068;-60
2023/03/29 22:38:00;;;;;;;2.53;1.83;;;;;;;14.44;55.09;99679.66;10407027;28;20065;-62
2023/03/29 22:43:01;;;;;;;3.92;2.45;;;;;;;14.36;54.53;99672.44;10407413;28;20060;-60
2023/03/29 22:48:06;;;;;;;4.47;2.33;;;;;;;14.37;54.78;99674.13;10405204;28;20048;-61
2023/03/29 22:53:09;;;;;;;3.67;2.38;;;;;;;14.30;54.42;99667.75;10402503;28;20507;-60
2023/03/29 22:58:10;;;;;;;3.72;2.00;;;;;;;14.26;54.47;99672.59;10405821;28;20053;-60
2023/03/29 23:03:12;;;;;;;5.07;2.30;;;;;;;14.29;54.62;99676.75;10404636;28;20138;-62
2023/03/29 23:08:14;;;;;;;4.15;2.40;;;;;;;14.17;54.44;99654.78;10405291;28;20583;-61
2023/03/29 23:13:22;;;;;;;3.60;2.03;;;;;;;14.21;54.81;99652.66;10405116;28;20059;-60
2023/03/29 23:18:26;;;;;;;4.28;1.83;;;;;;;14.24;54.20;99657.69;10403722;28;20045;-60
2023/03/29 23:23:28;;;;;;;4.78;2.42;;;;;;;14.23;54.40;99658.66;10398933;28;20777;-59
2023/03/29 23:28:33;;;;;;;5.60;2.50;;;;;;;14.25;54.27;99648.66;10368404;28;20760;-59
2023/03/29 23:33:37;;;;;;;3.88;1.92;;;;;;;14.25;54.46;99649.50;10386625;28;20096;-60
2023/03/29 23:38:40;;;;;;;3.78;2.35;;;;;;;14.27;54.65;99630.59;10402010;28;20048;-59